Map

Track Data

SID SEASON NUMBER BASIN SUBBASIN NAME ISO_TIME NATURE LAT LON WMO_WIND WMO_PRES WMO_AGENCY TRACK_TYPE DIST2LAND LANDFALL IFLAG USA_AGENCY USA_ATCF_ID USA_LAT USA_LON USA_RECORD USA_STATUS USA_WIND USA_PRES USA_SSHS USA_R34_NE USA_R34_SE USA_R34_SW USA_R34_NW USA_R50_NE USA_R50_SE USA_R50_SW USA_R50_NW USA_R64_NE USA_R64_SE USA_R64_SW USA_R64_NW USA_POCI USA_ROCI USA_RMW USA_EYE TOKYO_LAT TOKYO_LON TOKYO_GRADE TOKYO_WIND TOKYO_PRES TOKYO_R50_DIR TOKYO_R50_LONG TOKYO_R50_SHORT TOKYO_R30_DIR TOKYO_R30_LONG TOKYO_R30_SHORT TOKYO_LAND CMA_LAT CMA_LON CMA_CAT CMA_WIND CMA_PRES HKO_LAT HKO_LON HKO_CAT HKO_WIND HKO_PRES NEWDELHI_LAT NEWDELHI_LON NEWDELHI_GRADE NEWDELHI_WIND NEWDELHI_PRES NEWDELHI_CI NEWDELHI_DP NEWDELHI_POCI REUNION_LAT REUNION_LON REUNION_TYPE REUNION_WIND REUNION_PRES REUNION_TNUM REUNION_CI REUNION_RMW REUNION_R34_NE REUNION_R34_SE REUNION_R34_SW REUNION_R34_NW REUNION_R50_NE REUNION_R50_SE REUNION_R50_SW REUNION_R50_NW REUNION_R64_NE REUNION_R64_SE REUNION_R64_SW REUNION_R64_NW BOM_LAT BOM_LON BOM_TYPE BOM_WIND BOM_PRES BOM_TNUM BOM_CI BOM_RMW BOM_R34_NE BOM_R34_SE BOM_R34_SW BOM_R34_NW BOM_R50_NE BOM_R50_SE BOM_R50_SW BOM_R50_NW BOM_R64_NE BOM_R64_SE BOM_R64_SW BOM_R64_NW BOM_ROCI BOM_POCI BOM_EYE BOM_POS_METHOD BOM_PRES_METHOD NADI_LAT NADI_LON NADI_CAT NADI_WIND NADI_PRES WELLINGTON_LAT WELLINGTON_LON WELLINGTON_WIND WELLINGTON_PRES DS824_LAT DS824_LON DS824_STAGE DS824_WIND DS824_PRES TD9636_LAT TD9636_LON TD9636_STAGE TD9636_WIND TD9636_PRES TD9635_LAT TD9635_LON TD9635_WIND TD9635_PRES TD9635_ROCI NEUMANN_LAT NEUMANN_LON NEUMANN_CLASS NEUMANN_WIND NEUMANN_PRES MLC_LAT MLC_LON MLC_CLASS MLC_WIND MLC_PRES USA_GUST BOM_GUST BOM_GUST_PER REUNION_GUST REUNION_GUST_PER USA_SEAHGT USA_SEARAD_NE USA_SEARAD_SE USA_SEARAD_SW USA_SEARAD_NW STORM_SPEED STORM_DIR
1909336N12085 1909 66 NI BB NOT_NAMED 1909-12-02 00:00:00 TS 12.4000 85.3000 main 551 528 _________O____ -1 12.4000 85.3000 TC 64 4 299
1909336N12085 1909 66 NI BB NOT_NAMED 1909-12-02 03:00:00 TS 12.4934 85.1284 main 528 504 _________PO___ -1 12.5401 85.0425 TC 64 12.4000 85.3000 4 5 303
1909336N12085 1909 66 NI BB NOT_NAMED 1909-12-02 06:00:00 TS 12.6495 84.9014 main 504 480 _________OP___ -1 12.7000 84.8000 TC 64 12.5736 85.0534 4 6 308
1909336N12085 1909 66 NI BB NOT_NAMED 1909-12-02 09:00:00 TS 12.8304 84.6837 main 480 456 _________PP___ -1 12.8925 84.5850 TC 64 12.7477 84.8152 4 5 313
1909336N12085 1909 66 NI BB NOT_NAMED 1909-12-02 12:00:00 TS 13.0115 84.4972 main 456 433 _________OP___ -1 13.1000 84.4000 TC 64 12.9229 84.5945 4 5 316
1909336N12085 1909 66 NI BB NOT_NAMED 1909-12-02 15:00:00 TS 13.1962 84.3137 main 433 412 _________PO___ -1 13.2925 84.2275 TC 64 13.1000 84.4000 4 5 320
1909336N12085 1909 66 NI BB NOT_NAMED 1909-12-02 18:00:00 TS 13.3911 84.1698 main 412 387 _________OP___ -1 13.5000 84.1000 TC 64 13.2821 84.2397 4 5 330
1909336N12085 1909 66 NI BB NOT_NAMED 1909-12-02 21:00:00 TS 13.6012 84.0725 main 387 362 _________PP___ -1 13.7200 84.0275 TC 64 13.4824 84.1176 4 5 343
1909336N12085 1909 66 NI BB NOT_NAMED 1909-12-03 00:00:00 TS 13.8583 84.0183 main 353 324 _________OP___ -1 14.0000 84.0000 TC 64 13.7165 84.0367 4 6 352
1909336N12085 1909 66 NI BB NOT_NAMED 1909-12-03 03:00:00 TS 14.1887 83.9888 main 324 288 _________PO___ -1 14.3775 83.9776 TC 64 14.0000 84.0000 4 7 357
1909336N12085 1909 66 NI BB NOT_NAMED 1909-12-03 06:00:00 TS 14.5768 83.9873 main 288 255 _________OP___ -1 14.8000 84.0000 TC 64 14.3536 83.9746 4 8 2
1909336N12085 1909 66 NI BB NOT_NAMED 1909-12-03 09:00:00 TS 14.9774 84.0327 main 255 234 _________PP___ -1 15.2000 84.0700 TC 64 14.7548 83.9954 4 8 10
1909336N12085 1909 66 NI BB NOT_NAMED 1909-12-03 12:00:00 TS 15.3893 84.1342 main 234 226 _________OP___ -1 15.6000 84.2000 TC 64 15.1786 84.0685 4 9 16
1909336N12085 1909 66 NI BB NOT_NAMED 1909-12-03 15:00:00 TS 15.8037 84.2850 main 231 209 _________PO___ -1 16.0075 84.3701 TC 64 15.6000 84.2000 4 9 23
1909336N12085 1909 66 NI BB NOT_NAMED 1909-12-03 18:00:00 TS 16.1992 84.4900 main 209 192 _________OP___ -1 16.4000 84.6000 TC 64 15.9984 84.3801 4 9 30
1909336N12085 1909 66 NI BB NOT_NAMED 1909-12-03 21:00:00 TS 16.5762 84.7511 main 200 183 _________PP___ -1 16.7650 84.8850 TC 64 16.3875 84.6172 4 9 36
1909336N12085 1909 66 NI BB NOT_NAMED 1909-12-04 00:00:00 TS 16.9289 85.0479 main 183 169 _________OP___ -1 17.1000 85.2000 TC 64 16.7578 84.8958 4 9 40
1909336N12085 1909 66 NI BB NOT_NAMED 1909-12-04 03:00:00 TS 17.2575 85.3463 main 169 169 _________PO___ -1 17.4149 85.4926 TC 64 17.1000 85.2000 4 9 42
1909336N12085 1909 66 NI BB NOT_NAMED 1909-12-04 06:00:00 TS 17.5579 85.6458 main 169 169 _________OP___ -1 17.7000 85.8000 TC 64 17.4158 85.4915 4 8 46
1909336N12085 1909 66 NI BB NOT_NAMED 1909-12-04 09:00:00 TS 17.8336 85.9702 main 185 178 _________PP___ -1 17.9649 86.1351 TC 64 17.7022 85.8054 4 8 51
1909336N12085 1909 66 NI BB NOT_NAMED 1909-12-04 12:00:00 TS 18.0813 86.3208 main 192 186 _________OP___ -1 18.2000 86.5000 TC 64 17.9626 86.1415 4 8 56
1909336N12085 1909 66 NI BB NOT_NAMED 1909-12-04 15:00:00 TS 18.3037 86.6963 main 189 179 _________PO___ -1 18.4075 86.8926 TC 64 18.2000 86.5000 4 8 60
1909336N12085 1909 66 NI BB NOT_NAMED 1909-12-04 18:00:00 TS 18.5005 87.0816 main 183 177 _________OP___ -1 18.6000 87.3000 TC 64 18.4010 86.8631 4 8 62
1909336N12085 1909 66 NI BB NOT_NAMED 1909-12-04 21:00:00 TS 18.6847 87.4671 main 185 184 _________PP___ -1 18.7848 87.6853 TC 64 18.5845 87.2489 4 9 63
1909336N12085 1909 66 NI BB NOT_NAMED 1909-12-05 00:00:00 TS 18.8879 87.8801 main 199 199 _________OP___ -1 19.0000 88.1000 TC 64 18.7758 87.6602 4 9 61
1909336N12085 1909 66 NI BB NOT_NAMED 1909-12-05 03:00:00 TS 19.1387 88.3425 main 214 214 _________PO___ -1 19.2775 88.5851 TC 64 19.0000 88.1000 4 11 58
1909336N12085 1909 66 NI BB NOT_NAMED 1909-12-05 06:00:00 TS 19.4404 88.8337 main 237 202 _________OP___ -1 19.6000 89.1000 TC 64 19.2808 88.5674 4 11 56
1909336N12085 1909 66 NI BB NOT_NAMED 1909-12-05 09:00:00 TS 19.7698 89.3278 main 202 182 _________PP___ -1 19.9423 89.5927 TC 64 19.5973 89.0629 4 12 54
1909336N12085 1909 66 NI BB NOT_NAMED 1909-12-05 12:00:00 TS 20.1201 89.8385 main 182 145 _________OP___ -1 20.3000 90.1000 TC 64 19.9401 89.5770 4 12 54
1909336N12085 1909 66 NI BB NOT_NAMED 1909-12-05 15:00:00 TS 20.4712 90.3751 main 146 127 _________PO___ -1 20.6425 90.6502 TC 56 20.3000 90.1000 4 12 54
1909336N12085 1909 66 NI BB NOT_NAMED 1909-12-05 18:00:00 TS 20.8108 90.8708 main 129 70 _________OP___ -1 21.0000 91.2000 TC 49 20.6690 90.6239 4 12 53
1909336N12085 1909 66 NI BB NOT_NAMED 1909-12-05 21:00:00 TS 21.1822 91.3736 main 61 10 _________PP___ -1 21.3902 91.7120 TC 41 21.0436 91.1479 4 12 51
1909336N12085 1909 66 NI BB NOT_NAMED 1909-12-06 00:00:00 TS 21.5476 91.8487 main 10 0 _________OP___ -1 21.8000 92.2000 TC 34 21.4214 91.6730 4 10 51
1909336N12085 1909 66 NI BB NOT_NAMED 1909-12-06 03:00:00 NR 21.8000 92.2000 main 0 __________O___ -1 TC 21.8000 92.2000 2 8 52

About IBTrACS Database

This database is a web-friendly format of International Best Track Archive for Climate Stewardship (IBTrACS), a global best track data archive curated by NOAA dating back to 1842.

Updated: 2021-10-25